createdAt,value
2018-11-07T00:01:18.757Z,97955.97
2018-11-07T00:03:30.983Z,97952.99
2018-11-07T00:05:43.198Z,97959.56
2018-11-07T00:07:55.517Z,97964.05
2018-11-07T00:10:08.036Z,97968.39
2018-11-07T00:12:20.255Z,97967.78
2018-11-07T00:14:32.547Z,97961.62
2018-11-07T00:16:44.766Z,97969.67
2018-11-07T00:18:56.966Z,97959.55
2018-11-07T00:21:09.187Z,97960.09
2018-11-07T00:23:21.401Z,97962.88
2018-11-07T00:25:33.640Z,97960.50
2018-11-07T00:27:45.811Z,97957.28
2018-11-07T00:29:58.058Z,97953.55
2018-11-07T00:32:10.265Z,97956.96
2018-11-07T00:34:22.491Z,97956.66
2018-11-07T00:36:34.702Z,97953.14
2018-11-07T00:38:46.933Z,97960.98
2018-11-07T00:40:59.159Z,97955.14
2018-11-07T00:43:11.389Z,97947.75
2018-11-07T00:45:23.632Z,97954.91
2018-11-07T00:47:35.935Z,97951.86
2018-11-07T00:49:48.136Z,97951.92
2018-11-07T00:52:00.370Z,97958.80
2018-11-07T00:54:12.624Z,97956.03
2018-11-07T00:56:24.873Z,97953.91
2018-11-07T00:58:37.097Z,97968.29
2018-11-07T01:00:49.316Z,97963.95
2018-11-07T01:03:01.526Z,97961.83
2018-11-07T01:05:13.990Z,97965.70
2018-11-07T01:07:26.194Z,97976.61
2018-11-07T01:09:38.587Z,97966.78
2018-11-07T01:11:50.711Z,97968.39
2018-11-07T01:14:02.920Z,97966.84
2018-11-07T01:16:15.154Z,97967.51
2018-11-07T01:18:27.426Z,97973.02
2018-11-07T01:20:39.733Z,97970.92
2018-11-07T01:22:51.891Z,97970.88
2018-11-07T01:25:05.569Z,97962.38
2018-11-07T01:27:17.757Z,97958.05
2018-11-07T01:29:29.930Z,97960.31
2018-11-07T01:31:42.255Z,97955.22
2018-11-07T01:33:54.454Z,97956.34
2018-11-07T01:36:06.705Z,97957.24
2018-11-07T01:38:18.892Z,97962.14
2018-11-07T01:40:31.091Z,97962.27
2018-11-07T01:42:43.716Z,97957.03
2018-11-07T01:44:55.969Z,97960.09
2018-11-07T01:47:08.230Z,97949.04
2018-11-07T01:49:20.447Z,97950.03
2018-11-07T01:51:32.683Z,97937.66
2018-11-07T01:53:44.877Z,97936.98
2018-11-07T01:55:57.088Z,97933.89
2018-11-07T01:58:09.367Z,97931.38
2018-11-07T02:00:21.619Z,97932.44
2018-11-07T02:02:33.942Z,97934.56
2018-11-07T02:04:46.126Z,97935.86
2018-11-07T02:06:58.423Z,97927.27
2018-11-07T02:09:10.806Z,97926.34
2018-11-07T02:11:22.999Z,97926.50
2018-11-07T02:13:41.343Z,97923.50
2018-11-07T02:15:54.423Z,97928.83
2018-11-07T02:18:06.897Z,97933.70
2018-11-07T02:20:19.090Z,97928.57
2018-11-07T02:22:31.280Z,97920.77
2018-11-07T02:24:43.511Z,97918.03
2018-11-07T02:26:55.830Z,97912.55
2018-11-07T02:29:12.689Z,97906.71
2018-11-07T02:31:24.922Z,97907.63
2018-11-07T02:33:37.158Z,97907.11
2018-11-07T02:35:49.393Z,97900.72
2018-11-07T02:38:01.608Z,97902.47
2018-11-07T02:40:13.803Z,97907.17
2018-11-07T02:42:26.081Z,97914.65
2018-11-07T02:44:38.266Z,97915.84
2018-11-07T02:46:50.442Z,97914.50
2018-11-07T02:49:02.948Z,97917.02
2018-11-07T02:51:15.155Z,97920.06
2018-11-07T02:53:27.341Z,97915.75
2018-11-07T02:55:39.532Z,97915.84
2018-11-07T02:57:51.712Z,97911.66
2018-11-07T03:00:05.824Z,97920.55
2018-11-07T03:02:18.035Z,97910.59
2018-11-07T03:04:30.217Z,97919.02
2018-11-07T03:06:42.417Z,97919.08
2018-11-07T03:08:54.698Z,97923.39
2018-11-07T03:11:06.890Z,97922.77
2018-11-07T03:13:19.083Z,97923.45
2018-11-07T03:15:31.301Z,97928.55
2018-11-07T03:17:43.500Z,97930.52
2018-11-07T03:19:55.701Z,97935.08
2018-11-07T03:22:08.001Z,97930.83
2018-11-07T03:24:20.252Z,97930.77
2018-11-07T03:26:32.470Z,97932.73
2018-11-07T03:28:44.678Z,97926.36
2018-11-07T03:30:56.983Z,97927.29
2018-11-07T03:33:09.167Z,97923.78
2018-11-07T03:35:27.899Z,97923.94
2018-11-07T03:37:40.104Z,97922.89
2018-11-07T03:39:52.354Z,97926.30
2018-11-07T03:42:04.646Z,97931.56
2018-11-07T03:44:16.823Z,97928.05
2018-11-07T03:46:29.050Z,97928.60
2018-11-07T03:48:41.243Z,97937.70
2018-11-07T03:50:53.535Z,97940.77
2018-11-07T03:53:05.952Z,97939.02
2018-11-07T03:55:18.205Z,97951.61
2018-11-07T03:57:30.496Z,97948.34
2018-11-07T03:59:42.690Z,97950.98
2018-11-07T04:01:54.881Z,97953.88
2018-11-07T04:04:07.107Z,97950.01
2018-11-07T04:06:19.301Z,97942.17
2018-11-07T04:08:31.538Z,97931.17
2018-11-07T04:10:43.726Z,97933.81
2018-11-07T04:12:55.932Z,97941.73
2018-11-07T04:15:08.736Z,97944.36
2018-11-07T04:17:20.959Z,97938.23
2018-11-07T04:19:33.156Z,97930.95
2018-11-07T04:21:45.351Z,97923.72
2018-11-07T04:24:02.260Z,97935.94
2018-11-07T04:26:14.443Z,97933.22
2018-11-07T04:28:26.665Z,97935.53
2018-11-07T04:30:38.949Z,97932.03
2018-11-07T04:32:51.123Z,97936.95
2018-11-07T04:35:03.382Z,97932.62
2018-11-07T04:37:15.611Z,97929.68
2018-11-07T04:39:27.811Z,97933.63
2018-11-07T04:41:39.981Z,97930.88
2018-11-07T04:43:52.195Z,97935.02
2018-11-07T04:46:04.447Z,97928.94
2018-11-07T04:48:16.705Z,97933.86
2018-11-07T04:50:28.938Z,97935.05
2018-11-07T04:52:41.138Z,97934.41
2018-11-07T04:54:53.388Z,97930.54
2018-11-07T04:57:06.051Z,97938.91
2018-11-07T04:59:18.259Z,97938.64
2018-11-07T05:01:30.539Z,97934.08
2018-11-07T05:03:42.735Z,97937.25
2018-11-07T05:05:54.931Z,97933.38
2018-11-07T05:08:07.105Z,97932.84
2018-11-07T05:10:19.338Z,97934.22
2018-11-07T05:12:31.532Z,97934.67
2018-11-07T05:14:43.768Z,97931.18
2018-11-07T05:16:56.044Z,97932.23
2018-11-07T05:19:08.234Z,97931.08
2018-11-07T05:21:20.422Z,97932.18
2018-11-07T05:23:32.628Z,97935.89
2018-11-07T05:25:44.846Z,97934.20
2018-11-07T05:27:57.046Z,97934.28
2018-11-07T05:30:10.038Z,97932.75
2018-11-07T05:32:22.269Z,97933.84
2018-11-07T05:34:34.471Z,97946.35
2018-11-07T05:36:47.640Z,97943.78
2018-11-07T05:38:59.918Z,97941.52
2018-11-07T05:41:12.212Z,97939.72
2018-11-07T05:43:24.370Z,97941.00
2018-11-07T05:45:36.648Z,97943.03
2018-11-07T05:47:48.928Z,97940.88
2018-11-07T05:50:01.132Z,97943.06
2018-11-07T05:52:13.376Z,97954.48
2018-11-07T05:54:25.622Z,97955.53
2018-11-07T05:56:37.807Z,97963.30
2018-11-07T05:58:50.159Z,97960.61
2018-11-07T06:01:02.406Z,97956.38
2018-11-07T06:03:14.647Z,97961.36
2018-11-07T06:05:26.858Z,97953.49
2018-11-07T06:07:39.708Z,97955.19
2018-11-07T06:09:51.954Z,97962.92
2018-11-07T06:12:04.357Z,97963.56
2018-11-07T06:14:16.589Z,97962.03
2018-11-07T06:16:28.821Z,97962.00
2018-11-07T06:18:41.059Z,97963.34
2018-11-07T06:20:53.291Z,97955.70
2018-11-07T06:23:06.423Z,97956.66
2018-11-07T06:25:18.654Z,97956.46
2018-11-07T06:27:31.183Z,97958.20
2018-11-07T06:29:43.471Z,97953.89
2018-11-07T06:31:55.712Z,97960.33
2018-11-07T06:34:07.958Z,97960.52
2018-11-07T06:36:20.137Z,97968.88
2018-11-07T06:38:32.349Z,97972.23
2018-11-07T06:40:44.577Z,97966.03
2018-11-07T06:42:56.774Z,97971.05
2018-11-07T06:45:09.860Z,97971.38
2018-11-07T06:47:22.173Z,97976.98
2018-11-07T06:49:34.411Z,97977.62
2018-11-07T06:51:46.676Z,97975.05
2018-11-07T06:53:58.903Z,97975.16
2018-11-07T06:56:11.298Z,97980.31
2018-11-07T06:58:23.470Z,97985.01
2018-11-07T07:00:35.747Z,97992.28
2018-11-07T07:02:48.051Z,97989.20
2018-11-07T07:05:00.258Z,97990.36
2018-11-07T07:07:12.486Z,97990.92
2018-11-07T07:09:24.765Z,97984.64
2018-11-07T07:11:36.990Z,97985.41
2018-11-07T07:13:49.273Z,97992.00
2018-11-07T07:16:01.636Z,98000.97
2018-11-07T07:18:13.947Z,98001.12
2018-11-07T07:20:26.120Z,98005.91
2018-11-07T07:22:38.708Z,98001.26
2018-11-07T07:24:50.922Z,98001.12
2018-11-07T07:27:03.131Z,97999.70
2018-11-07T07:29:15.459Z,97996.39
2018-11-07T07:31:27.826Z,97998.62
2018-11-07T07:33:40.157Z,97994.38
2018-11-07T07:35:52.360Z,97992.95
2018-11-07T07:38:05.128Z,97993.75
2018-11-07T07:40:17.374Z,97990.52
2018-11-07T07:42:29.707Z,97995.40
2018-11-07T07:44:41.939Z,97996.00
2018-11-07T07:46:54.188Z,97993.50
2018-11-07T07:49:06.462Z,97983.45
2018-11-07T07:51:18.672Z,97988.52
2018-11-07T07:53:30.927Z,97980.50
2018-11-07T07:55:43.179Z,97980.03
2018-11-07T07:57:55.405Z,97980.45
2018-11-07T08:00:19.189Z,97985.77
2018-11-07T08:02:31.405Z,97977.99
2018-11-07T08:04:43.683Z,97978.05
2018-11-07T08:06:55.959Z,97979.34
2018-11-07T08:09:10.252Z,97978.84
2018-11-07T08:11:22.494Z,97974.64
2018-11-07T08:13:34.795Z,97972.84
2018-11-07T08:15:46.891Z,97968.61
2018-11-07T08:17:59.115Z,97973.56
2018-11-07T08:20:12.369Z,97975.70
2018-11-07T08:22:24.646Z,97971.83
2018-11-07T08:24:36.852Z,97973.40
2018-11-07T08:26:49.094Z,97975.63
2018-11-07T08:29:01.412Z,97971.78
2018-11-07T08:31:13.610Z,97971.61
2018-11-07T08:33:25.886Z,97974.73
2018-11-07T08:35:38.119Z,97974.14
2018-11-07T08:37:50.342Z,97972.16
2018-11-07T08:40:02.855Z,97976.72
2018-11-07T08:42:15.908Z,97964.06
2018-11-07T08:44:28.144Z,97962.52
2018-11-07T08:46:40.410Z,97960.05
2018-11-07T08:48:52.675Z,97958.50
2018-11-07T08:51:04.982Z,97949.81
2018-11-07T08:53:17.210Z,97958.14
2018-11-07T08:55:29.514Z,97956.22
2018-11-07T08:57:41.821Z,97954.58
2018-11-07T08:59:54.033Z,97959.69
2018-11-07T09:02:06.390Z,97956.22
2018-11-07T09:04:18.691Z,97960.36
2018-11-07T09:06:30.988Z,97962.84
2018-11-07T09:08:44.125Z,97967.78
2018-11-07T09:10:56.365Z,97966.72
2018-11-07T09:13:08.625Z,97958.59
2018-11-07T09:15:21.933Z,97960.81
2018-11-07T09:17:34.271Z,97959.70
2018-11-07T09:19:46.563Z,97961.38
2018-11-07T09:21:58.864Z,97970.16
2018-11-07T09:24:11.142Z,97964.24
2018-11-07T09:26:23.386Z,97959.26
2018-11-07T09:28:35.619Z,97963.18
2018-11-07T09:30:47.872Z,97971.77
2018-11-07T09:33:00.152Z,97975.69
2018-11-07T09:35:12.844Z,97973.59
2018-11-07T09:37:25.092Z,97968.22
2018-11-07T09:39:37.433Z,97953.59
2018-11-07T09:41:49.718Z,97959.52
2018-11-07T09:44:01.976Z,97959.02
2018-11-07T09:46:14.214Z,97958.87
2018-11-07T09:48:26.551Z,97947.09
2018-11-07T09:50:38.821Z,97944.73
2018-11-07T09:52:51.088Z,97945.16
2018-11-07T09:55:03.925Z,97946.86
2018-11-07T09:57:16.143Z,97946.72
2018-11-07T09:59:28.441Z,97950.87
2018-11-07T10:01:40.647Z,97941.23
2018-11-07T10:03:52.907Z,97944.58
2018-11-07T10:06:05.217Z,97939.98
2018-11-07T10:08:17.449Z,97936.69
2018-11-07T10:10:29.676Z,97933.20
2018-11-07T10:12:42.258Z,97938.47
2018-11-07T10:14:54.514Z,97924.86
2018-11-07T10:17:06.731Z,97926.21
2018-11-07T10:19:18.988Z,97928.53
2018-11-07T10:21:31.237Z,97911.57
2018-11-07T10:23:43.499Z,97907.16
2018-11-07T10:25:55.794Z,97909.41
2018-11-07T10:28:08.545Z,97914.09
2018-11-07T10:30:21.021Z,97905.23
2018-11-07T10:32:32.993Z,97904.23
2018-11-07T10:34:49.083Z,97901.99
2018-11-07T10:37:01.306Z,97898.92
2018-11-07T10:39:13.704Z,97897.77
2018-11-07T10:41:25.977Z,97895.44
2018-11-07T10:43:38.204Z,97892.67
2018-11-07T10:45:50.441Z,97883.38
2018-11-07T10:48:02.683Z,97888.28
2018-11-07T10:50:15.855Z,97884.42
2018-11-07T10:52:30.872Z,97889.05
2018-11-07T10:54:43.152Z,97885.53
2018-11-07T10:56:55.374Z,97886.97
2018-11-07T10:59:07.566Z,97885.39
2018-11-07T11:01:25.636Z,97884.22
2018-11-07T11:03:37.886Z,97877.45
2018-11-07T11:05:50.064Z,97887.86
2018-11-07T11:08:02.297Z,97878.47
2018-11-07T11:10:18.550Z,97877.25
2018-11-07T11:12:30.867Z,97883.66
2018-11-07T11:14:43.220Z,97886.89
2018-11-07T11:16:55.487Z,97886.83
2018-11-07T11:19:07.736Z,97876.39
2018-11-07T11:21:20.839Z,97872.79
2018-11-07T11:23:33.075Z,97876.17
2018-11-07T11:25:46.257Z,97873.83
2018-11-07T11:27:58.471Z,97872.39
2018-11-07T11:30:10.678Z,97878.73
2018-11-07T11:32:22.936Z,97878.89
2018-11-07T11:34:35.323Z,97880.48
2018-11-07T11:36:47.405Z,97878.89
2018-11-07T11:39:01.404Z,97871.57
2018-11-07T11:41:13.729Z,97870.88
2018-11-07T11:43:25.868Z,97877.16
2018-11-07T11:45:38.104Z,97869.89
2018-11-07T11:47:50.337Z,97875.02
2018-11-07T11:50:02.946Z,97874.53
2018-11-07T11:52:15.184Z,97864.52
2018-11-07T11:54:27.419Z,97867.27
2018-11-07T11:56:39.615Z,97860.38
2018-11-07T11:58:51.963Z,97853.06
2018-11-07T12:01:04.160Z,97858.24
2018-11-07T12:03:19.194Z,97860.98
2018-11-07T12:05:31.432Z,97857.05
2018-11-07T12:07:43.695Z,97860.38
2018-11-07T12:09:55.928Z,97855.20
2018-11-07T12:12:09.030Z,97859.83
2018-11-07T12:14:21.209Z,97856.88
2018-11-07T12:16:33.542Z,97857.91
2018-11-07T12:18:45.855Z,97851.02
2018-11-07T12:20:58.132Z,97851.56
2018-11-07T12:23:12.333Z,97844.70
2018-11-07T12:25:24.755Z,97848.79
2018-11-07T12:27:37.170Z,97854.19
2018-11-07T12:29:49.459Z,97856.81
2018-11-07T12:32:01.719Z,97852.52
2018-11-07T12:34:13.943Z,97846.32
2018-11-07T12:36:26.301Z,97846.99
2018-11-07T12:38:43.480Z,97844.70
2018-11-07T12:40:57.577Z,97850.65
2018-11-07T12:43:09.806Z,97837.25
2018-11-07T12:45:22.925Z,97846.87
2018-11-07T12:47:36.528Z,97843.20
2018-11-07T12:49:48.817Z,97843.48
2018-11-07T12:52:01.031Z,97839.33
2018-11-07T12:54:14.299Z,97841.75
2018-11-07T12:56:26.600Z,97842.44
2018-11-07T12:58:38.829Z,97842.29
2018-11-07T13:00:51.092Z,97844.64
2018-11-07T13:03:04.399Z,97842.56
2018-11-07T13:05:17.674Z,97838.09
2018-11-07T13:07:29.939Z,97842.84
2018-11-07T13:09:42.203Z,97843.61
2018-11-07T13:11:54.399Z,97846.38
2018-11-07T13:14:06.687Z,97855.08
2018-11-07T13:16:18.941Z,97844.86
2018-11-07T13:18:31.175Z,97852.33
2018-11-07T13:20:49.957Z,97849.16
2018-11-07T13:23:03.092Z,97853.58
2018-11-07T13:25:15.859Z,97861.78
2018-11-07T13:27:28.221Z,97865.98
2018-11-07T13:29:40.495Z,97864.95
2018-11-07T13:31:52.710Z,97868.88
2018-11-07T13:34:05.075Z,97864.12
2018-11-07T13:36:17.305Z,97859.59
2018-11-07T13:38:30.650Z,97860.69
2018-11-07T13:40:42.619Z,97864.47
2018-11-07T13:42:54.885Z,97864.19
2018-11-07T13:45:09.154Z,97867.79
2018-11-07T13:47:21.354Z,97875.25
2018-11-07T13:49:33.555Z,97871.86
2018-11-07T13:51:46.711Z,97870.22
2018-11-07T13:53:59.985Z,97867.65
2018-11-07T13:56:12.263Z,97869.34
2018-11-07T13:58:24.511Z,97872.80
2018-11-07T14:00:36.799Z,97878.16
2018-11-07T14:02:49.709Z,97881.41
2018-11-07T14:05:02.784Z,97877.09
2018-11-07T14:07:16.049Z,97881.59
2018-11-07T14:09:28.309Z,97879.61
2018-11-07T14:11:40.612Z,97878.91
2018-11-07T14:13:53.150Z,97875.47
2018-11-07T14:16:05.544Z,97885.73
2018-11-07T14:18:19.562Z,97892.84
2018-11-07T14:20:31.800Z,97904.42
2018-11-07T14:22:44.065Z,97904.01
2018-11-07T14:24:59.163Z,97908.20
2018-11-07T14:27:11.460Z,97905.09
2018-11-07T14:29:23.734Z,97912.63
2018-11-07T14:31:36.028Z,97915.99
2018-11-07T14:33:48.322Z,97915.28
2018-11-07T14:36:00.526Z,97924.11
2018-11-07T14:38:12.789Z,97928.30
2018-11-07T14:40:25.910Z,97925.20
2018-11-07T14:42:38.467Z,97936.65
2018-11-07T14:44:50.715Z,97944.77
2018-11-07T14:47:02.955Z,97942.75
2018-11-07T14:49:15.205Z,97947.05
2018-11-07T14:51:27.547Z,97948.96
2018-11-07T14:53:39.906Z,97944.61
2018-11-07T14:55:52.023Z,97950.45
2018-11-07T14:58:04.300Z,97948.43
2018-11-07T15:00:17.097Z,97947.49
2018-11-07T15:02:29.383Z,97947.61
2018-11-07T15:04:41.608Z,97948.02
2018-11-07T15:06:53.828Z,97953.08
2018-11-07T15:09:07.906Z,97953.17
2018-11-07T15:11:20.226Z,97954.19
2018-11-07T15:13:32.431Z,97960.09
2018-11-07T15:15:44.651Z,97955.88
2018-11-07T15:17:56.892Z,97954.15
2018-11-07T15:20:10.319Z,97963.94
2018-11-07T15:22:22.575Z,97964.58
2018-11-07T15:24:35.887Z,97968.03
2018-11-07T15:26:48.119Z,97977.22
2018-11-07T15:29:00.405Z,97974.37
2018-11-07T15:31:12.661Z,97979.41
2018-11-07T15:33:25.011Z,97983.60
2018-11-07T15:35:37.306Z,97979.69
2018-11-07T15:37:49.593Z,97985.77
2018-11-07T15:40:01.926Z,97985.20
2018-11-07T15:42:14.217Z,97990.18
2018-11-07T15:44:26.505Z,97993.78
2018-11-07T15:46:38.993Z,98001.57
2018-11-07T15:48:51.259Z,98003.34
2018-11-07T15:51:09.114Z,98012.48
2018-11-07T15:53:21.442Z,98012.60
2018-11-07T15:55:33.713Z,98022.81
2018-11-07T15:57:45.947Z,98024.32
2018-11-07T15:59:58.286Z,98026.91
2018-11-07T16:02:10.526Z,98029.75
2018-11-07T16:04:22.804Z,98035.58
2018-11-07T16:06:35.067Z,98045.06
2018-11-07T16:08:47.335Z,98045.61
2018-11-07T16:10:59.558Z,98045.83
2018-11-07T16:13:11.891Z,98046.49
2018-11-07T16:15:24.137Z,98052.41
2018-11-07T16:17:36.333Z,98060.88
2018-11-07T16:19:48.554Z,98062.53
2018-11-07T16:22:00.785Z,98063.21
2018-11-07T16:24:13.058Z,98064.75
2018-11-07T16:26:25.307Z,98068.71
2018-11-07T16:28:37.641Z,98071.12
2018-11-07T16:30:49.818Z,98074.05
2018-11-07T16:33:02.095Z,98078.99
2018-11-07T16:35:14.823Z,98076.95
2018-11-07T16:37:27.044Z,98080.00
2018-11-07T16:39:39.313Z,98083.23
2018-11-07T16:41:51.718Z,98093.22
2018-11-07T16:44:03.905Z,98095.87
2018-11-07T16:46:16.160Z,98096.67
2018-11-07T16:48:28.522Z,98100.58
2018-11-07T16:50:40.720Z,98101.23
2018-11-07T16:52:52.999Z,98101.91
2018-11-07T16:55:05.358Z,98102.40
2018-11-07T16:57:17.643Z,98104.38
2018-11-07T16:59:29.898Z,98102.17
2018-11-07T17:01:42.178Z,98106.88
2018-11-07T17:03:54.405Z,98112.98
2018-11-07T17:06:06.666Z,98112.23
2018-11-07T17:08:18.882Z,98117.19
2018-11-07T17:10:31.075Z,98110.97
2018-11-07T17:12:43.425Z,98118.88
2018-11-07T17:14:55.716Z,98124.99
2018-11-07T17:17:07.970Z,98131.77
2018-11-07T17:19:20.187Z,98134.13
2018-11-07T17:21:32.468Z,98135.28
2018-11-07T17:23:45.377Z,98137.62
2018-11-07T17:25:57.632Z,98139.77
2018-11-07T17:28:09.871Z,98144.73
2018-11-07T17:30:22.127Z,98143.25
2018-11-07T17:32:34.352Z,98147.05
2018-11-07T17:34:46.810Z,98150.22
2018-11-07T17:36:59.068Z,98149.14
2018-11-07T17:39:11.303Z,98154.05
2018-11-07T17:41:23.557Z,98159.33
2018-11-07T17:43:35.822Z,98169.83
2018-11-07T17:45:48.078Z,98170.58
2018-11-07T17:48:00.491Z,98173.08
2018-11-07T17:50:13.981Z,98181.05
2018-11-07T17:52:26.250Z,98188.12
2018-11-07T17:54:38.463Z,98190.32
2018-11-07T17:56:50.776Z,98191.08
2018-11-07T17:59:03.102Z,98198.39
2018-11-07T18:01:15.364Z,98203.41
2018-11-07T18:03:27.706Z,98208.23
2018-11-07T18:05:39.987Z,98210.25
2018-11-07T18:07:52.259Z,98219.91
2018-11-07T18:10:06.820Z,98220.74
2018-11-07T18:12:19.043Z,98217.39
2018-11-07T18:14:31.327Z,98223.40
2018-11-07T18:16:43.583Z,98224.33
2018-11-07T18:18:55.874Z,98221.91
2018-11-07T18:21:08.062Z,98225.98
2018-11-07T18:23:20.353Z,98235.52
2018-11-07T18:25:32.582Z,98230.30
2018-11-07T18:27:44.893Z,98233.44
2018-11-07T18:29:57.207Z,98236.30
2018-11-07T18:32:09.523Z,98240.47
2018-11-07T18:34:21.742Z,98241.34
2018-11-07T18:36:33.989Z,98248.26
2018-11-07T18:38:46.272Z,98251.31
2018-11-07T18:40:58.643Z,98254.02
2018-11-07T18:43:10.959Z,98248.53
2018-11-07T18:45:23.162Z,98256.21
2018-11-07T18:47:35.484Z,98265.29
2018-11-07T18:49:47.744Z,98264.63
2018-11-07T18:52:00.056Z,98274.77
2018-11-07T18:54:12.271Z,98275.33
2018-11-07T18:56:24.535Z,98278.22
2018-11-07T18:58:36.957Z,98282.34
2018-11-07T19:00:49.139Z,98284.37
2018-11-07T19:03:01.385Z,98291.55
2018-11-07T19:05:13.682Z,98286.31
2018-11-07T19:07:25.972Z,98289.84
2018-11-07T19:09:38.238Z,98295.18
2018-11-07T19:11:50.535Z,98294.05
2018-11-07T19:14:02.843Z,98293.42
2018-11-07T19:16:15.067Z,98299.08
2018-11-07T19:18:27.321Z,98296.90
2018-11-07T19:20:39.590Z,98300.11
2018-11-07T19:22:51.902Z,98302.70
2018-11-07T19:25:05.503Z,98312.60
2018-11-07T19:27:17.873Z,98314.36
2018-11-07T19:29:30.046Z,98319.94
2018-11-07T19:31:42.343Z,98319.02
2018-11-07T19:33:54.656Z,98318.80
2018-11-07T19:36:06.863Z,98320.04
2018-11-07T19:38:19.210Z,98318.80
2018-11-07T19:40:31.522Z,98330.70
2018-11-07T19:42:43.738Z,98331.78
2018-11-07T19:44:56.008Z,98327.34
2018-11-07T19:47:08.315Z,98328.80
2018-11-07T19:49:20.586Z,98330.03
2018-11-07T19:51:33.043Z,98337.48
2018-11-07T19:53:45.346Z,98334.98
2018-11-07T19:55:57.571Z,98343.28
2018-11-07T19:58:09.891Z,98344.20
2018-11-07T20:00:22.111Z,98351.20
2018-11-07T20:02:34.390Z,98349.08
2018-11-07T20:04:46.691Z,98353.42
2018-11-07T20:06:58.951Z,98356.53
2018-11-07T20:09:11.195Z,98362.58
2018-11-07T20:11:23.485Z,98369.05
2018-11-07T20:13:35.737Z,98368.27
2018-11-07T20:15:48.001Z,98365.69
2018-11-07T20:18:00.248Z,98366.98
2018-11-07T20:20:12.998Z,98375.82
2018-11-07T20:22:25.208Z,98377.72
2018-11-07T20:24:37.448Z,98373.53
2018-11-07T20:26:49.707Z,98373.38
2018-11-07T20:29:02.017Z,98380.08
2018-11-07T20:31:14.329Z,98382.52
2018-11-07T20:33:27.258Z,98383.34
2018-11-07T20:35:39.615Z,98382.52
2018-11-07T20:37:51.819Z,98384.95
2018-11-07T20:40:05.391Z,98388.90
2018-11-07T20:42:17.696Z,98390.75
2018-11-07T20:44:29.986Z,98395.38
2018-11-07T20:46:42.313Z,98393.04
2018-11-07T20:48:54.587Z,98394.84
2018-11-07T20:51:06.876Z,98398.98
2018-11-07T20:53:19.295Z,98401.84
2018-11-07T20:55:31.556Z,98398.05
2018-11-07T20:57:43.836Z,98403.98
2018-11-07T20:59:56.147Z,98398.73
2018-11-07T21:02:08.455Z,98402.53
2018-11-07T21:04:20.715Z,98399.11
2018-11-07T21:06:32.939Z,98405.44
2018-11-07T21:08:45.189Z,98411.69
2018-11-07T21:10:57.434Z,98406.20
2018-11-07T21:13:09.691Z,98411.84
2018-11-07T21:15:22.001Z,98413.45
2018-11-07T21:17:34.328Z,98416.78
2018-11-07T21:19:46.624Z,98418.23
2018-11-07T21:21:58.885Z,98422.80
2018-11-07T21:24:11.120Z,98422.72
2018-11-07T21:26:23.431Z,98426.55
2018-11-07T21:28:35.661Z,98436.45
2018-11-07T21:30:48.008Z,98438.05
2018-11-07T21:33:00.272Z,98442.53
2018-11-07T21:35:13.339Z,98445.75
2018-11-07T21:37:25.651Z,98453.34
2018-11-07T21:39:37.927Z,98457.84
2018-11-07T21:41:50.161Z,98455.02
2018-11-07T21:44:02.545Z,98463.09
2018-11-07T21:46:14.755Z,98460.05
2018-11-07T21:48:26.974Z,98459.43
2018-11-07T21:50:39.280Z,98462.95
2018-11-07T21:52:51.586Z,98466.43
2018-11-07T21:55:04.530Z,98461.80
2018-11-07T21:57:16.791Z,98472.55
2018-11-07T21:59:29.029Z,98472.39
2018-11-07T22:01:41.273Z,98471.46
2018-11-07T22:03:53.503Z,98472.98
2018-11-07T22:06:05.750Z,98475.05
2018-11-07T22:08:18.009Z,98476.66
2018-11-07T22:10:30.246Z,98482.83
2018-11-07T22:12:42.481Z,98480.70
2018-11-07T22:14:54.787Z,98479.31
2018-11-07T22:17:07.168Z,98477.39
2018-11-07T22:19:19.407Z,98473.81
2018-11-07T22:21:31.654Z,98479.31
2018-11-07T22:23:43.894Z,98475.70
2018-11-07T22:25:56.104Z,98478.14
2018-11-07T22:28:08.363Z,98479.84
2018-11-07T22:30:20.612Z,98473.62
2018-11-07T22:32:32.834Z,98478.81
2018-11-07T22:34:45.142Z,98480.52
2018-11-07T22:36:57.421Z,98484.41
2018-11-07T22:39:11.876Z,98487.43
2018-11-07T22:41:24.222Z,98488.36
2018-11-07T22:43:36.436Z,98493.55
2018-11-07T22:45:48.659Z,98495.77
2018-11-07T22:48:00.869Z,98503.92
2018-11-07T22:50:14.098Z,98497.89
2018-11-07T22:52:26.402Z,98505.83
2018-11-07T22:54:38.592Z,98506.91
2018-11-07T22:56:50.871Z,98505.92
2018-11-07T22:59:03.093Z,98504.71
2018-11-07T23:01:22.108Z,98508.97
2018-11-07T23:03:34.337Z,98512.03
2018-11-07T23:05:46.574Z,98512.49
2018-11-07T23:07:58.816Z,98509.68
2018-11-07T23:10:11.016Z,98509.13
2018-11-07T23:12:23.250Z,98508.23
2018-11-07T23:14:35.476Z,98510.36
2018-11-07T23:16:47.667Z,98510.21
2018-11-07T23:18:59.955Z,98509.19
2018-11-07T23:21:12.228Z,98510.12
2018-11-07T23:23:24.467Z,98512.09
2018-11-07T23:25:36.657Z,98513.70
2018-11-07T23:27:48.964Z,98516.20
2018-11-07T23:30:01.177Z,98514.08
2018-11-07T23:32:13.402Z,98517.19
2018-11-07T23:34:25.598Z,98515.16
2018-11-07T23:36:37.803Z,98517.80
2018-11-07T23:38:50.266Z,98521.69
2018-11-07T23:41:02.451Z,98523.17
2018-11-07T23:43:14.716Z,98527.22
2018-11-07T23:45:26.914Z,98526.44
2018-11-07T23:47:39.200Z,98530.64
2018-11-07T23:49:51.387Z,98531.10
2018-11-07T23:52:03.726Z,98536.66
2018-11-07T23:54:16.984Z,98538.27
2018-11-07T23:56:29.150Z,98537.72
2018-11-07T23:58:41.391Z,98539.48
